Roatan, Honduras

10:32 PM CST on July 30, 2016 (GMT -0600)
Roatan International | | Change Station

Elev 16 ft 16.32 °N, 86.53 °W | Updated 2 hours ago

Mostly Cloudy
Mostly Cloudy
82 °F
Feels Like 91 °F
N
14
Wind Variable Wind from East

Today
High -- | Low -- °F
--% Chance of Precip.
Yesterday
High -- | Low -- °F
Precip. -- in
Pressure 29.98 in
Visibility 6.2 miles
Clouds Mostly Cloudy 2000 ft
Heat Index 91 °F
Dew Point 77 °F
Humidity 84%
Rainfall 0.00 in
Snow Depth Not available.
5:26 AM 6:18 PM
Waning Crescent, 9% visible
METAR MHRO 310200Z 09012KT 9999 BKN020TCU 28/25 Q1015 A2997 NOSIG
Pressure 29.98 in
Visibility 6.2 miles
Clouds Mostly Cloudy 2000 ft
Heat Index 91 °F
Dew Point 77 °F
Humidity 84%
Rainfall 0.00 in
Snow Depth Not available.
5:26 AM 6:18 PM
Waning Crescent, 9% visible
METAR MHRO 310200Z 09012KT 9999 BKN020TCU 28/25 Q1015 A2997 NOSIG

10-Day Weather Forecast

No radar image for this location.
×

Almanac

Astronomy

Jul. 30, 2016 Rise Set
Actual Time
Civil Twilight
Nautical Twilight
Astronomical Twilight
Moon
Length of Visible Light
Length of Day
Tomorrow will be .
, % of the Moon is Illuminated

Today's Extremes

Country Highs Country Lows

Community

WunderPhotos

Upload Photos

1,928,759 photos uploaded!

WunderBlog® & News

Nearby

Air Quality

  Air Quality AQ Index Pollutant
Not available.

Snow Depth

Station Depth Elevation

Earthquake Activity

City Distance Mag. Time & Date
Minimum magnitude displayed is 2.5.

Coastal Water Temperatures

Place Temperature

Stations

Nearby Weather Stations

Station Location Temp. Windchill Dew Point Humidity Wind Precip. Elev Updated Type